Time;durP1;ratioP1;P1;durP2;ratioP2;P2;SDS_P1;SDS_P2;PMS_P1;PMS_P2;Temp;Humidity;BMP_temperature;BMP_pressure;BME280_temperature;BME280_humidity;BME280_pressure;Samples;Min_cycle;Max_cycle;Signal;HPM_P1;HPM_P2
2022/12/03 00:01:14;;;;;;;94.00;46.35;;;;;;;-1.49;100.00;100570.84;5051297;28;20041;-79
2022/12/03 00:03:39;;;;;;;80.22;40.30;;;;;;;-1.57;100.00;100556.22;5092327;28;20024;-78
2022/12/03 00:06:04;;;;;;;82.25;41.08;;;;;;;-1.56;100.00;100555.44;5092188;28;20038;-79
2022/12/03 00:08:30;;;;;;;92.03;48.20;;;;;;;-1.57;100.00;100551.13;5092382;28;20012;-79
2022/12/03 00:10:55;;;;;;;79.13;39.65;;;;;;;-1.50;100.00;100562.31;5092335;28;20036;-79
2022/12/03 00:13:20;;;;;;;77.28;40.40;;;;;;;-1.57;100.00;100546.00;5073815;28;20160;-79
2022/12/03 00:15:46;;;;;;;91.30;45.00;;;;;;;-1.54;100.00;100545.22;5092265;28;20051;-79
2022/12/03 00:18:11;;;;;;;85.57;42.50;;;;;;;-1.56;100.00;100546.88;5091830;28;20020;-79
2022/12/03 00:20:36;;;;;;;82.82;43.30;;;;;;;-1.49;100.00;100556.38;5092567;28;20031;-79
2022/12/03 00:23:02;;;;;;;89.93;47.42;;;;;;;-1.46;100.00;100556.44;5092242;28;20029;-79
2022/12/03 00:25:27;;;;;;;83.90;41.40;;;;;;;-1.51;100.00;100563.16;5091865;28;20031;-79
2022/12/03 00:27:53;;;;;;;86.97;43.38;;;;;;;-1.56;100.00;100546.88;5091841;28;20020;-79
2022/12/03 00:30:18;;;;;;;100.60;47.50;;;;;;;-1.48;100.00;100557.22;5091710;28;20128;-79
2022/12/03 00:32:43;;;;;;;85.80;44.67;;;;;;;-1.57;100.00;100546.00;5091941;28;20100;-79
2022/12/03 00:35:09;;;;;;;79.55;40.75;;;;;;;-1.45;100.00;100559.84;5091596;28;20528;-79
2022/12/03 00:37:34;;;;;;;74.88;40.50;;;;;;;-1.44;100.00;100564.09;5092185;28;20359;-79
2022/12/03 00:40:01;;;;;;;87.22;44.35;;;;;;;-1.48;100.00;100540.19;5092024;28;20028;-78
2022/12/03 00:42:26;;;;;;;77.68;40.40;;;;;;;-1.38;100.00;100551.44;5091846;28;20372;-79
2022/12/03 00:44:52;;;;;;;82.80;43.15;;;;;;;-1.46;100.00;100543.66;5091990;28;20363;-79
2022/12/03 00:47:17;;;;;;;77.43;42.25;;;;;;;-1.41;100.00;100553.94;5091637;28;20375;-79
2022/12/03 00:49:43;;;;;;;78.28;41.80;;;;;;;-1.46;100.00;100545.34;5091662;28;20184;-78
2022/12/03 00:52:08;;;;;;;74.90;38.17;;;;;;;-1.46;100.00;100543.66;5092695;28;20012;-79
2022/12/03 00:54:33;;;;;;;78.90;39.70;;;;;;;-1.45;100.00;100539.41;5095854;28;20383;-78
2022/12/03 00:56:59;;;;;;;77.43;40.58;;;;;;;-1.45;100.00;100547.06;5096398;28;20435;-79
2022/12/03 00:59:24;;;;;;;77.90;41.28;;;;;;;-1.48;100.00;100537.63;5095583;28;20106;-79
2022/12/03 01:01:49;;;;;;;78.63;39.60;;;;;;;-1.42;100.00;100547.97;5077609;28;20059;-78
2022/12/03 01:04:15;;;;;;;72.72;35.95;;;;;;;-1.47;100.00;100544.50;5095494;28;20558;-79
2022/12/03 01:06:40;;;;;;;76.47;39.85;;;;;;;-1.44;100.00;100544.53;5095969;28;20024;-79
2022/12/03 01:09:05;;;;;;;74.53;41.25;;;;;;;-1.42;100.00;100540.31;5095728;28;20019;-79
2022/12/03 01:11:37;;;;;;;71.25;38.00;;;;;;;-1.48;100.00;100529.97;5095372;28;20035;-79
2022/12/03 01:14:06;;;;;;;80.10;41.13;;;;;;;-1.50;100.00;100539.31;5095385;28;20499;-79
2022/12/03 01:16:32;;;;;;;71.10;39.77;;;;;;;-1.47;100.00;100546.19;5095187;28;20085;-78
2022/12/03 01:18:58;;;;;;;73.47;38.45;;;;;;;-1.54;100.00;100545.22;5095273;28;20081;-79
2022/12/03 01:21:23;;;;;;;73.20;36.78;;;;;;;-1.53;100.00;100536.72;5095078;28;20023;-78
2022/12/03 01:23:48;;;;;;;61.58;34.72;;;;;;;-1.52;100.00;100528.22;5095694;28;20032;-79
2022/12/03 01:26:14;;;;;;;76.03;37.33;;;;;;;-1.42;100.00;100536.91;5094953;28;20024;-79
2022/12/03 01:28:40;;;;;;;74.68;38.38;;;;;;;-1.40;100.00;100550.53;5095211;28;20028;-79
2022/12/03 01:33:51;;;;;;;83.07;42.55;;;;;;;-1.52;100.00;100534.19;5095419;28;20078;-79
2022/12/03 01:36:16;;;;;;;87.65;42.85;;;;;;;-1.52;100.00;100528.22;5095074;28;20048;-79
2022/12/03 01:38:41;;;;;;;82.63;42.13;;;;;;;-1.52;100.00;100525.66;5094927;28;20031;-79
2022/12/03 01:41:07;;;;;;;82.60;41.53;;;;;;;-1.45;100.00;100540.25;5094677;28;20016;-79
2022/12/03 01:43:32;;;;;;;81.95;40.97;;;;;;;-1.47;100.00;100541.09;5094681;28;20019;-79
2022/12/03 01:45:58;;;;;;;90.00;43.22;;;;;;;-1.44;100.00;100547.06;5076461;28;20071;-79
2022/12/03 01:48:23;;;;;;;75.75;38.28;;;;;;;-1.47;100.00;100539.38;5076548;28;20028;-78
2022/12/03 01:50:48;;;;;;;78.93;40.08;;;;;;;-1.50;100.00;100529.09;5094964;28;20111;-78
2022/12/03 01:53:17;;;;;;;83.55;44.63;;;;;;;-1.51;100.00;100520.59;5094887;28;20371;-78
2022/12/03 01:55:42;;;;;;;88.30;44.00;;;;;;;-1.45;100.00;100526.63;5094698;28;20020;-79
2022/12/03 01:58:11;;;;;;;81.25;40.47;;;;;;;-1.48;100.00;100518.91;5095172;28;20360;-79
2022/12/03 02:00:37;;;;;;;84.45;42.45;;;;;;;-1.45;100.00;100530.03;5094377;28;20027;-79
2022/12/03 02:03:10;;;;;;;79.85;41.20;;;;;;;-1.45;100.00;100529.19;5094418;28;20368;-79
2022/12/03 02:05:37;;;;;;;75.45;38.80;;;;;;;-1.51;100.00;100515.47;5094716;28;20024;-79
2022/12/03 02:08:26;;;;;;;82.18;39.40;;;;;;;-1.44;100.00;100516.41;5076269;28;20016;-78
2022/12/03 02:10:52;;;;;;;82.75;41.30;;;;;;;-1.49;100.00;100519.75;4992435;28;20109;-78
2022/12/03 02:13:18;;;;;;;68.05;35.88;;;;;;;-1.42;100.00;100519.00;4992096;28;20437;-79
2022/12/03 02:15:43;;;;;;;74.75;39.63;;;;;;;-1.45;100.00;100513.84;4992559;28;20030;-79
2022/12/03 02:18:09;;;;;;;70.63;35.28;;;;;;;-1.49;100.00;100522.31;4992544;28;20465;-79
2022/12/03 02:20:45;;;;;;;72.18;37.30;;;;;;;-1.42;100.00;100524.97;4992157;28;20034;-79
2022/12/03 02:23:27;;;;;;;69.95;36.67;;;;;;;-1.39;100.00;100521.59;4992548;28;20050;-79
2022/12/03 02:25:53;;;;;;;69.30;36.03;;;;;;;-1.33;100.00;100531.94;4992314;28;20223;-79
2022/12/03 02:28:18;;;;;;;69.63;35.80;;;;;;;-1.34;100.00;100523.41;4991947;28;20536;-79
2022/12/03 02:30:43;;;;;;;74.97;37.45;;;;;;;-1.39;100.00;100514.81;4992227;28;20026;-78
2022/12/03 02:33:09;;;;;;;68.05;33.40;;;;;;;-1.33;100.00;100525.13;4992166;28;20429;-79
2022/12/03 02:35:36;;;;;;;60.88;32.35;;;;;;;-1.33;100.00;100516.59;4991720;28;20037;-79
2022/12/03 02:38:18;;;;;;;65.18;35.83;;;;;;;-1.34;100.00;100520.00;4992007;28;20034;-79
2022/12/03 02:40:46;;;;;;;60.90;32.03;;;;;;;-1.38;100.00;100508.00;4992020;28;20547;-79
2022/12/03 02:43:15;;;;;;;77.88;40.33;;;;;;;-1.35;100.00;100515.69;4991938;28;20030;-78
2022/12/03 02:45:43;;;;;;;71.60;34.33;;;;;;;-1.34;100.00;100520.00;4991861;28;20026;-78
2022/12/03 02:48:32;;;;;;;70.38;34.47;;;;;;;-1.38;100.00;100513.97;5002458;28;20041;-78
2022/12/03 02:51:04;;;;;;;66.10;31.67;;;;;;;-1.45;100.00;100509.59;5031151;28;20037;-79
2022/12/03 02:53:34;;;;;;;67.65;34.08;;;;;;;-1.38;100.00;100508.00;5030912;28;20107;-79
2022/12/03 02:56:02;;;;;;;68.45;35.45;;;;;;;-1.41;100.00;100500.28;5030940;28;20025;-79
2022/12/03 02:58:31;;;;;;;64.03;33.08;;;;;;;-1.34;100.00;100520.00;5030683;28;20028;-79
2022/12/03 03:00:57;;;;;;;58.20;31.60;;;;;;;-1.32;100.00;100513.19;5030257;28;20069;-79
2022/12/03 03:03:26;;;;;;;60.00;32.92;;;;;;;-1.42;100.00;100486.66;5030622;28;20428;-79
2022/12/03 03:05:52;;;;;;;66.40;33.90;;;;;;;-1.36;100.00;100506.31;5030651;28;20026;-79
2022/12/03 03:08:18;;;;;;;59.97;30.02;;;;;;;-1.33;100.00;100508.94;5030450;28;20025;-79
2022/12/03 03:10:45;;;;;;;62.60;32.47;;;;;;;-1.28;100.00;100517.53;5030672;28;20021;-79
2022/12/03 03:13:13;;;;;;;60.70;33.08;;;;;;;-1.32;100.00;100516.59;5030710;28;20139;-79
2022/12/03 03:15:41;;;;;;;62.47;31.80;;;;;;;-1.31;100.00;100513.25;5029651;28;20123;-79
2022/12/03 03:18:08;;;;;;;62.22;33.38;;;;;;;-1.31;100.00;100515.81;5030563;28;20103;-79
2022/12/03 03:20:34;;;;;;;65.60;34.90;;;;;;;-1.31;100.00;100510.69;5030399;28;20060;-79
2022/12/03 03:23:11;;;;;;;60.58;32.40;;;;;;;-1.45;100.00;100489.16;5030529;28;20462;-79
2022/12/03 03:25:42;;;;;;;57.42;29.52;;;;;;;-1.33;100.00;100504.69;5062106;28;20032;-79
2022/12/03 03:28:08;;;;;;;60.78;33.92;;;;;;;-1.33;100.00;100508.94;5093149;28;20024;-79
2022/12/03 03:30:35;;;;;;;61.13;33.53;;;;;;;-1.31;100.00;100497.91;5092835;28;20355;-79
2022/12/03 03:33:00;;;;;;;60.63;31.10;;;;;;;-1.30;100.00;100506.44;5092937;28;20093;-79
2022/12/03 03:35:26;;;;;;;70.55;36.45;;;;;;;-1.41;100.00;100498.59;5092603;28;20538;-78
2022/12/03 03:37:52;;;;;;;55.45;30.35;;;;;;;-1.32;100.00;100514.06;5092764;28;20028;-79
2022/12/03 03:40:19;;;;;;;55.67;31.00;;;;;;;-1.36;100.00;100502.06;5092685;28;20073;-79
2022/12/03 03:42:45;;;;;;;55.50;30.95;;;;;;;-1.35;100.00;100491.03;5092501;28;20070;-79
2022/12/03 03:45:10;;;;;;;65.00;33.88;;;;;;;-1.39;100.00;100493.50;5092825;28;20401;-79
2022/12/03 03:47:36;;;;;;;59.95;33.20;;;;;;;-1.38;100.00;100485.88;5092421;28;20451;-79
2022/12/03 03:50:02;;;;;;;62.97;34.00;;;;;;;-1.36;100.00;100496.09;5092643;28;20300;-79
2022/12/03 03:52:27;;;;;;;61.08;32.85;;;;;;;-1.35;100.00;100488.47;5092366;28;20016;-79
2022/12/03 03:54:52;;;;;;;61.28;32.38;;;;;;;-1.40;100.00;100472.19;5092442;28;20026;-79
2022/12/03 03:57:18;;;;;;;61.75;33.45;;;;;;;-1.36;100.00;100473.97;5092395;28;20367;-79
2022/12/03 03:59:43;;;;;;;62.65;34.22;;;;;;;-1.39;100.00;100466.28;5092423;28;20462;-79
2022/12/03 04:02:20;;;;;;;72.20;36.47;;;;;;;-1.34;100.00;100474.84;5092489;28;20441;-79
2022/12/03 04:04:47;;;;;;;70.50;36.45;;;;;;;-1.36;100.00;100478.22;5092255;28;20099;-78
2022/12/03 04:07:13;;;;;;;62.35;33.85;;;;;;;-1.33;100.00;100485.94;5091961;28;20525;-79
2022/12/03 04:09:38;;;;;;;67.25;33.28;;;;;;;-1.29;100.00;100480.88;5091848;28;20051;-79
2022/12/03 04:14:48;;;;;;;61.55;32.47;;;;;;;-1.27;100.00;100468.97;5092283;28;20086;-79
2022/12/03 04:17:13;;;;;;;69.57;34.45;;;;;;;-1.26;100.00;100464.75;5092265;28;20059;-78
2022/12/03 04:19:38;;;;;;;65.82;34.70;;;;;;;-1.30;100.00;100463.84;5091868;28;20043;-79
2022/12/03 04:24:48;;;;;;;64.45;34.63;;;;;;;-1.23;100.00;100459.66;5092134;28;20088;-79
2022/12/03 04:29:57;;;;;;;69.10;37.40;;;;;;;-1.24;100.00;100472.44;5091960;28;20854;-78
2022/12/03 04:37:51;;;;;;;69.70;37.72;;;;;;;-1.32;100.00;100464.66;5091976;28;20080;-79
2022/12/03 04:43:01;;;;;;;67.00;34.55;;;;;;;-1.24;100.00;100472.44;5092325;28;20129;-79
2022/12/03 04:45:26;;;;;;;71.38;36.03;;;;;;;-1.27;100.00;100471.53;5091619;28;20024;-78
2022/12/03 04:47:51;;;;;;;72.93;36.33;;;;;;;-1.31;100.00;100456.13;5092283;28;20020;-79
2022/12/03 04:50:17;;;;;;;65.18;34.33;;;;;;;-1.30;100.00;100456.19;5091953;28;20020;-78
2022/12/03 04:52:42;;;;;;;73.10;37.72;;;;;;;-1.28;100.00;100453.63;5092066;28;20099;-78
2022/12/03 04:55:08;;;;;;;70.50;35.65;;;;;;;-1.24;100.00;100463.06;5091723;28;20479;-79
2022/12/03 04:57:33;;;;;;;76.80;41.20;;;;;;;-1.27;100.00;100463.88;5091460;28;20451;-79
2022/12/03 04:59:58;;;;;;;73.78;36.63;;;;;;;-1.25;100.00;100471.56;5091937;28;20016;-79
2022/12/03 05:02:24;;;;;;;81.43;39.80;;;;;;;-1.26;100.00;100475.84;5091576;28;20467;-78
2022/12/03 05:04:49;;;;;;;82.15;41.78;;;;;;;-1.31;100.00;100462.13;5091630;28;20024;-79
2022/12/03 05:07:14;;;;;;;72.68;38.10;;;;;;;-1.26;100.00;100478.38;5091732;28;20024;-78
2022/12/03 05:09:40;;;;;;;78.45;38.88;;;;;;;-1.33;100.00;100463.78;5091465;28;20336;-78
2022/12/03 05:12:05;;;;;;;81.43;40.70;;;;;;;-1.36;100.00;100456.06;5091618;28;20448;-78
2022/12/03 05:14:31;;;;;;;83.43;42.17;;;;;;;-1.30;100.00;100463.00;5091205;28;20070;-79
2022/12/03 05:16:56;;;;;;;76.68;38.63;;;;;;;-1.34;100.00;100461.22;5091882;28;20020;-78
2022/12/03 05:20:40;;;;;;;77.57;38.17;;;;;;;-1.30;100.00;100465.53;5073534;28;20020;-78
2022/12/03 05:22:06;;;;;;;75.00;37.92;;;;;;;-1.29;100.00;100470.66;5091508;28;20374;-79
2022/12/03 05:24:32;;;;;;;100.57;57.47;;;;;;;-1.29;100.00;100475.78;5091289;28;20012;-79
2022/12/03 05:26:57;;;;;;;84.10;43.22;;;;;;;-1.30;100.00;100468.94;5091451;28;20063;-79
2022/12/03 05:29:22;;;;;;;104.78;61.65;;;;;;;-1.37;100.00;100453.50;5091546;28;20455;-79
2022/12/03 05:31:48;;;;;;;93.10;49.65;;;;;;;-1.27;100.00;100465.56;5091248;28;20024;-79
2022/12/03 05:34:13;;;;;;;126.72;68.60;;;;;;;-1.32;100.00;100457.84;5091412;28;20289;-79
2022/12/03 05:36:38;;;;;;;95.75;52.08;;;;;;;-1.27;100.00;100468.97;5090845;28;20039;-79
2022/12/03 05:39:04;;;;;;;92.25;53.83;;;;;;;-1.26;100.00;100468.16;5093415;28;20076;-79
2022/12/03 05:44:13;;;;;;;75.00;37.05;;;;;;;-1.24;100.00;100463.06;5094957;28;20111;-79
2022/12/03 05:46:38;;;;;;;82.68;42.40;;;;;;;-1.26;100.00;100463.06;5094676;28;20103;-79
2022/12/03 05:49:03;;;;;;;84.32;44.15;;;;;;;-1.28;100.00;100464.72;5094987;28;20016;-79
2022/12/03 05:51:29;;;;;;;88.72;46.50;;;;;;;-1.30;100.00;100470.66;5094581;28;20035;-79
2022/12/03 05:53:54;;;;;;;82.22;47.03;;;;;;;-1.39;100.00;100443.28;5094981;28;20023;-79
2022/12/03 05:56:19;;;;;;;76.85;41.83;;;;;;;-1.26;100.00;100455.38;5094852;28;20016;-79
2022/12/03 05:58:45;;;;;;;76.13;40.40;;;;;;;-1.32;100.00;100441.66;5094669;28;20047;-79
2022/12/03 06:01:10;;;;;;;80.63;37.13;;;;;;;-1.28;100.00;100454.50;5094817;28;20051;-79
2022/12/03 06:03:36;;;;;;;71.13;37.38;;;;;;;-1.20;100.00;100469.09;5094446;28;20016;-79
2022/12/03 06:06:01;;;;;;;84.00;46.05;;;;;;;-1.24;100.00;100465.63;5094704;28;20184;-79
2022/12/03 06:08:26;;;;;;;83.78;43.08;;;;;;;-1.38;100.00;100442.44;5094265;28;20024;-79
2022/12/03 06:10:52;;;;;;;83.55;43.03;;;;;;;-1.29;100.00;100454.47;5094417;28;20020;-79
2022/12/03 06:13:17;;;;;;;85.07;45.63;;;;;;;-1.25;100.00;100463.91;5094584;28;20012;-79
2022/12/03 06:15:42;;;;;;;70.53;36.22;;;;;;;-1.31;100.00;100454.47;5094114;28;20031;-79
2022/12/03 06:18:08;;;;;;;69.40;38.42;;;;;;;-1.28;100.00;100453.63;5094520;28;20030;-79
2022/12/03 06:20:33;;;;;;;89.53;45.67;;;;;;;-1.24;100.00;100465.63;5094127;28;20022;-79
2022/12/03 06:22:58;;;;;;;85.45;48.38;;;;;;;-1.23;100.00;100458.81;5094118;28;20058;-79
2022/12/03 06:25:24;;;;;;;78.60;41.92;;;;;;;-1.31;100.00;100451.91;5094358;28;20032;-79
2022/12/03 06:27:49;;;;;;;73.68;38.35;;;;;;;-1.20;100.00;100462.28;5093826;28;20016;-79
2022/12/03 06:30:15;;;;;;;81.35;41.97;;;;;;;-1.25;100.00;100451.13;5094239;28;20024;-79
2022/12/03 06:32:40;;;;;;;70.05;38.17;;;;;;;-1.20;100.00;100452.03;5094266;28;20020;-79
2022/12/03 06:35:06;;;;;;;70.70;37.28;;;;;;;-1.29;100.00;100446.81;5093894;28;20066;-79
2022/12/03 06:37:31;;;;;;;59.33;32.47;;;;;;;-1.20;100.00;100466.53;5093571;28;20020;-79
2022/12/03 06:39:57;;;;;;;82.40;38.85;;;;;;;-1.24;100.00;100463.06;5094036;28;20512;-79
2022/12/03 06:42:22;;;;;;;66.13;38.30;;;;;;;-1.30;100.00;100450.22;5093973;28;20503;-79
2022/12/03 06:44:47;;;;;;;74.13;41.30;;;;;;;-1.29;100.00;100451.91;5093697;28;20023;-79
2022/12/03 06:47:12;;;;;;;77.50;42.65;;;;;;;-1.24;100.00;100462.19;5093810;28;20020;-78
2022/12/03 06:49:38;;;;;;;79.10;41.53;;;;;;;-1.23;100.00;100462.22;5092245;28;20051;-79
2022/12/03 06:52:03;;;;;;;70.05;40.95;;;;;;;-1.24;100.00;100455.41;5093546;28;20044;-79
2022/12/03 06:54:29;;;;;;;67.43;38.30;;;;;;;-1.21;100.00;100463.13;5093636;28;20378;-79
2022/12/03 06:56:54;;;;;;;73.57;42.95;;;;;;;-1.20;100.00;100461.41;5093461;28;20103;-79
2022/12/03 06:59:19;;;;;;;71.15;41.17;;;;;;;-1.33;100.00;100443.34;5093928;28;20027;-79
2022/12/03 07:01:45;;;;;;;63.70;36.63;;;;;;;-1.29;100.00;100451.91;5093191;28;20379;-79
2022/12/03 07:04:10;;;;;;;71.88;41.78;;;;;;;-1.30;100.00;100455.31;5093361;28;20012;-79
2022/12/03 07:06:35;;;;;;;61.17;34.45;;;;;;;-1.22;100.00;100463.06;5093392;28;20040;-79
2022/12/03 07:09:01;;;;;;;66.07;36.50;;;;;;;-1.26;100.00;100460.50;5093128;28;20020;-79
2022/12/03 07:11:32;;;;;;;62.72;34.58;;;;;;;-1.23;100.00;100457.09;5093561;28;20119;-79
2022/12/03 07:14:01;;;;;;;56.45;33.92;;;;;;;-1.34;100.00;100440.78;5093395;28;20065;-78
2022/12/03 07:16:27;;;;;;;60.03;34.78;;;;;;;-1.27;100.00;100434.91;5093296;28;20024;-79
2022/12/03 07:18:53;;;;;;;58.22;33.17;;;;;;;-1.21;100.00;100459.69;5074683;28;20114;-79
2022/12/03 07:21:18;;;;;;;53.80;31.02;;;;;;;-1.29;100.00;100434.03;5093050;28;20559;-78
2022/12/03 07:23:44;;;;;;;66.80;37.22;;;;;;;-1.23;100.00;100435.81;5092771;28;20055;-79
2022/12/03 07:26:09;;;;;;;67.30;37.63;;;;;;;-1.14;100.00;100447.00;5093113;28;20035;-78
2022/12/03 07:28:35;;;;;;;58.40;33.03;;;;;;;-1.18;100.00;100446.94;5074605;28;20069;-79
2022/12/03 07:31:00;;;;;;;65.68;34.53;;;;;;;-1.21;100.00;100434.13;5092989;28;20020;-78
2022/12/03 07:33:25;;;;;;;54.78;32.72;;;;;;;-1.18;100.00;100450.38;5092881;28;20020;-79
2022/12/03 07:35:51;;;;;;;57.78;33.58;;;;;;;-1.14;100.00;100447.00;5092437;28;20363;-78
2022/12/03 07:38:16;;;;;;;64.28;37.20;;;;;;;-1.15;100.00;100442.72;5092783;28;20027;-78
2022/12/03 07:40:42;;;;;;;63.20;36.42;;;;;;;-1.09;100.00;100455.63;5092685;28;20024;-78
2022/12/03 07:43:07;;;;;;;59.00;34.35;;;;;;;-1.08;100.00;100453.91;5092812;28;20023;-79
2022/12/03 07:45:32;;;;;;;65.15;35.47;;;;;;;-1.05;100.00;100456.53;5092976;28;20511;-78
2022/12/03 07:47:57;;;;;;;62.55;36.75;;;;;;;-1.13;100.00;100453.84;5092362;28;20050;-79
2022/12/03 07:50:26;;;;;;;72.43;42.20;;;;;;;-1.13;100.00;100453.00;5092436;28;20111;-78
2022/12/03 07:52:51;;;;;;;63.33;34.63;;;;;;;-1.17;100.00;100439.31;5074242;28;20020;-79
2022/12/03 07:55:16;;;;;;;61.90;33.95;;;;;;;-1.04;100.00;100451.41;5092929;28;20455;-79
2022/12/03 07:57:42;;;;;;;64.85;38.28;;;;;;;-1.08;100.00;100441.97;5092334;28;20474;-78
2022/12/03 08:00:07;;;;;;;64.07;35.25;;;;;;;-1.02;100.00;100462.50;5092723;28;20020;-78
2022/12/03 08:02:33;;;;;;;67.32;37.83;;;;;;;-1.00;100.00;100454.88;5091906;28;20040;-78
2022/12/03 08:04:58;;;;;;;67.15;38.78;;;;;;;-1.03;100.00;100444.59;5091973;28;20024;-79
2022/12/03 08:07:23;;;;;;;63.60;37.33;;;;;;;-1.04;100.00;100442.88;5092219;28;20114;-78
2022/12/03 08:09:49;;;;;;;67.10;37.45;;;;;;;-1.01;100.00;100448.06;5092058;28;20107;-78
2022/12/03 08:12:19;;;;;;;62.95;35.17;;;;;;;-1.07;100.00;100438.59;5092391;28;20030;-78
2022/12/03 08:14:44;;;;;;;77.45;48.38;;;;;;;-1.08;100.00;100441.97;5092085;28;20030;-78
2022/12/03 08:17:14;;;;;;;81.15;48.42;;;;;;;-1.16;100.00;100448.69;5092182;28;20016;-79
2022/12/03 08:19:45;;;;;;;78.68;46.22;;;;;;;-1.18;100.00;100447.81;5091785;28;20031;-78
2022/12/03 08:22:13;;;;;;;68.10;38.83;;;;;;;-1.23;100.00;100435.81;5092035;28;20477;-78
2022/12/03 08:24:38;;;;;;;65.50;37.92;;;;;;;-1.21;100.00;100440.09;5091941;28;20023;-78
2022/12/03 08:27:15;;;;;;;72.82;41.15;;;;;;;-1.19;100.00;100437.56;5092217;28;20359;-78
2022/12/03 08:29:40;;;;;;;94.32;48.33;;;;;;;-1.22;100.00;100428.19;5091603;28;20020;-78
2022/12/03 08:32:08;;;;;;;70.65;38.72;;;;;;;-1.15;100.00;100429.94;5073723;28;20020;-78
2022/12/03 08:34:39;;;;;;;70.93;38.40;;;;;;;-1.18;100.00;100414.59;5092117;28;20016;-78
2022/12/03 08:37:19;;;;;;;88.05;48.03;;;;;;;-1.11;100.00;100426.59;5092041;28;20024;-78
2022/12/03 08:39:47;;;;;;;75.63;41.88;;;;;;;-1.05;100.00;100428.41;5091856;28;20024;-78
2022/12/03 08:45:38;;;;;;;81.75;44.50;;;;;;;-0.98;100.00;100431.88;5091886;28;20109;-78
2022/12/03 08:48:25;;;;;;;84.28;48.90;;;;;;;-0.96;100.00;100437.88;5091776;28;20023;-78
2022/12/03 08:50:55;;;;;;;74.40;41.63;;;;;;;-1.03;100.00;100412.22;5091583;28;20468;-78
2022/12/03 08:53:41;;;;;;;81.93;47.40;;;;;;;-0.98;100.00;100419.09;5092070;28;20107;-78
2022/12/03 08:56:16;;;;;;;81.35;45.38;;;;;;;-0.91;100.00;100426.00;5091834;28;20024;-78
2022/12/03 08:58:48;;;;;;;78.85;45.03;;;;;;;-0.92;100.00;100420.03;5091696;28;20024;-78
2022/12/03 09:01:36;;;;;;;82.57;45.67;;;;;;;-0.84;100.00;100421.00;5091491;28;20044;-78
2022/12/03 09:04:18;;;;;;;91.60;49.10;;;;;;;-0.79;100.00;100428.72;5091661;28;20372;-78
2022/12/03 09:06:44;;;;;;;85.57;48.38;;;;;;;-0.80;100.00;100417.63;5091520;28;20060;-78
2022/12/03 09:09:09;;;;;;;90.45;48.03;;;;;;;-0.84;100.00;100413.31;5091621;28;20055;-78
2022/12/03 09:11:34;;;;;;;86.80;50.35;;;;;;;-0.72;100.00;100421.94;5091654;28;20390;-78
2022/12/03 09:14:00;;;;;;;104.32;55.38;;;;;;;-0.77;100.00;100411.66;5093586;28;20012;-79
2022/12/03 09:16:25;;;;;;;108.63;55.60;;;;;;;-0.73;100.00;100410.88;5095646;28;20571;-78
2022/12/03 09:18:50;;;;;;;99.03;50.60;;;;;;;-0.65;100.00;100416.94;5095331;28;20471;-79
2022/12/03 09:21:16;;;;;;;93.72;51.85;;;;;;;-0.62;100.00;100427.19;5095482;28;20033;-78
2022/12/03 09:23:41;;;;;;;75.63;40.75;;;;;;;-0.60;100.00;100422.94;5095097;28;20016;-78
2022/12/03 09:26:06;;;;;;;97.20;51.55;;;;;;;-0.60;100.00;100422.94;5095296;28;20016;-78
2022/12/03 09:28:32;;;;;;;85.70;46.05;;;;;;;-0.59;100.00;100418.69;5095023;28;20023;-78
2022/12/03 09:30:57;;;;;;;88.93;48.00;;;;;;;-0.65;100.00;100408.41;5095011;28;20052;-78
2022/12/03 09:33:22;;;;;;;105.22;55.47;;;;;;;-0.58;100.00;100407.63;5095253;28;20020;-78
2022/12/03 09:35:48;;;;;;;96.00;50.80;;;;;;;-0.53;100.00;100403.41;5094660;28;20096;-78
2022/12/03 09:38:13;;;;;;;97.25;52.35;;;;;;;-0.48;100.00;100414.56;5094986;28;20023;-78
2022/12/03 09:40:39;;;;;;;72.75;40.00;;;;;;;-0.47;100.00;100407.72;5095066;28;20439;-78
2022/12/03 09:43:04;;;;;;;91.80;49.00;;;;;;;-0.48;100.00;100395.78;5094791;28;20137;-78
2022/12/03 09:45:30;;;;;;;79.75;43.95;;;;;;;-0.46;100.00;100401.75;5095178;28;20367;-78
2022/12/03 09:47:55;;;;;;;73.07;42.40;;;;;;;-0.37;100.00;100412.97;5094844;28;20024;-78
2022/12/03 09:50:25;;;;;;;88.88;47.67;;;;;;;-0.43;100.00;100405.22;5094944;28;20362;-78
2022/12/03 09:52:54;;;;;;;90.53;50.13;;;;;;;-0.45;100.00;100398.38;5076513;28;20020;-78
2022/12/03 09:55:25;;;;;;;83.22;43.10;;;;;;;-0.39;100.00;100411.22;5076480;28;20382;-78
2022/12/03 09:57:55;;;;;;;85.05;44.88;;;;;;;-0.47;100.00;100397.50;5094472;28;20040;-78
2022/12/03 10:00:23;;;;;;;87.05;47.17;;;;;;;-0.39;100.00;100403.53;5094561;28;20024;-78
2022/12/03 10:02:51;;;;;;;80.13;48.45;;;;;;;-0.35;100.00;100411.25;5094432;28;20042;-78
2022/12/03 10:05:21;;;;;;;79.00;46.10;;;;;;;-0.38;100.00;100400.13;5094527;28;20086;-78
2022/12/03 10:07:48;;;;;;;93.93;53.70;;;;;;;-0.34;100.00;100400.22;5094589;28;20413;-78
2022/12/03 10:10:22;;;;;;;84.00;47.55;;;;;;;-0.45;100.00;100383.03;5094474;28;20115;-78
2022/12/03 10:12:50;;;;;;;88.22;46.78;;;;;;;-0.29;100.00;100413.91;5094418;28;20459;-78
2022/12/03 10:15:19;;;;;;;82.55;45.15;;;;;;;-0.34;100.00;100401.88;5094350;28;20020;-78
2022/12/03 10:17:46;;;;;;;86.60;48.17;;;;;;;-0.26;100.00;100406.22;5094434;28;20101;-78
2022/12/03 10:20:14;;;;;;;86.72;47.63;;;;;;;-0.27;100.00;100399.41;5094336;28;20020;-78
2022/12/03 10:22:40;;;;;;;89.60;47.35;;;;;;;-0.25;100.00;100396.88;5094120;28;20031;-78
2022/12/03 10:25:20;;;;;;;81.57;45.58;;;;;;;-0.24;100.00;100398.59;5093745;28;20099;-78
2022/12/03 10:27:59;;;;;;;95.28;49.97;;;;;;;-0.22;100.00;100391.75;5093928;28;20031;-78
2022/12/03 10:30:27;;;;;;;90.35;46.55;;;;;;;-0.33;100.00;100370.34;5094036;28;20024;-78
2022/12/03 10:32:53;;;;;;;87.93;48.72;;;;;;;-0.10;100.00;100406.38;5093760;28;20016;-78
2022/12/03 10:35:22;;;;;;;82.05;45.63;;;;;;;-0.18;100.00;100390.94;5094116;28;20024;-78
2022/12/03 10:38:01;;;;;;;83.03;46.15;;;;;;;-0.09;100.00;100402.97;5093944;28;20028;-78
2022/12/03 10:40:36;;;;;;;83.70;47.20;;;;;;;-0.10;100.00;100401.25;5093647;28;20115;-78
2022/12/03 10:43:16;;;;;;;84.80;47.35;;;;;;;-0.07;100.00;100394.47;5093663;28;20020;-78
2022/12/03 10:45:47;;;;;;;83.05;45.35;;;;;;;-0.04;100.00;100394.50;5093739;28;20024;-78
2022/12/03 10:48:15;;;;;;;86.30;47.40;;;;;;;-0.04;100.00;100380.84;5093666;28;20467;-78
2022/12/03 10:50:52;;;;;;;92.00;49.90;;;;;;;-0.10;100.00;100366.25;5093790;28;20107;-78
2022/12/03 10:53:20;;;;;;;78.07;42.35;;;;;;;0.02;100.00;100374.91;5093760;28;20099;-78
2022/12/03 10:55:49;;;;;;;89.63;49.10;;;;;;;0.00;100.00;100372.34;5093631;28;20043;-78
2022/12/03 10:58:21;;;;;;;81.13;43.33;;;;;;;0.06;100.00;100359.56;5093624;28;20372;-78
2022/12/03 11:00:48;;;;;;;75.72;44.33;;;;;;;0.13;100.00;100363.03;5093450;28;20044;-78
2022/12/03 11:03:24;;;;;;;91.03;47.70;;;;;;;0.12;100.00;100343.38;5093646;28;20340;-78
2022/12/03 11:05:51;;;;;;;72.57;41.67;;;;;;;0.23;100.00;100349.44;5093133;28;20371;-78
2022/12/03 11:08:19;;;;;;;88.95;46.08;;;;;;;0.29;100.00;100357.16;5093287;28;20023;-78
2022/12/03 11:10:54;;;;;;;85.95;46.88;;;;;;;0.15;100.00;100345.97;5093194;28;20031;-78
2022/12/03 11:13:32;;;;;;;88.65;48.92;;;;;;;0.21;100.00;100359.69;5093488;28;20154;-78
2022/12/03 11:15:59;;;;;;;79.70;45.30;;;;;;;0.24;100.00;100353.72;5093045;28;20028;-78
2022/12/03 11:18:36;;;;;;;79.43;45.38;;;;;;;0.26;100.00;100357.16;5093028;28;20012;-78
2022/12/03 11:21:09;;;;;;;85.32;46.35;;;;;;;0.27;100.00;100351.16;5074659;28;20111;-78
2022/12/03 11:23:43;;;;;;;79.50;46.80;;;;;;;0.36;100.00;100358.06;5093243;28;20016;-78
2022/12/03 11:26:16;;;;;;;89.57;51.13;;;;;;;0.34;100.00;100360.63;5093163;28;20028;-78
2022/12/03 11:28:53;;;;;;;88.97;50.25;;;;;;;0.27;100.00;100353.72;5092979;28;20028;-78